sensor_id;sensor_type;location;lat;lon;timestamp;P1;durP1;ratioP1;P2;durP2;ratioP2
35576;SDS011;21680;52.400;16.920;2023-12-20T00:00:59;8.60;;;4.20;;
35576;SDS011;21680;52.400;16.920;2023-12-20T00:03:24;4.30;;;3.80;;
35576;SDS011;21680;52.400;16.920;2023-12-20T00:05:50;5.30;;;3.90;;
35576;SDS011;21680;52.400;16.920;2023-12-20T00:08:15;5.50;;;3.70;;
35576;SDS011;21680;52.400;16.920;2023-12-20T00:10:41;7.60;;;4.20;;
35576;SDS011;21680;52.400;16.920;2023-12-20T00:13:07;8.80;;;3.90;;
35576;SDS011;21680;52.400;16.920;2023-12-20T00:15:33;5.90;;;3.70;;
35576;SDS011;21680;52.400;16.920;2023-12-20T00:17:59;5.00;;;3.90;;
35576;SDS011;21680;52.400;16.920;2023-12-20T00:20:24;4.60;;;3.10;;
35576;SDS011;21680;52.400;16.920;2023-12-20T00:22:49;4.40;;;3.30;;
35576;SDS011;21680;52.400;16.920;2023-12-20T00:25:14;4.40;;;3.20;;
35576;SDS011;21680;52.400;16.920;2023-12-20T00:27:40;7.40;;;3.30;;
35576;SDS011;21680;52.400;16.920;2023-12-20T00:30:05;3.90;;;3.40;;
35576;SDS011;21680;52.400;16.920;2023-12-20T00:32:31;5.00;;;3.30;;
35576;SDS011;21680;52.400;16.920;2023-12-20T00:34:56;6.60;;;3.40;;
35576;SDS011;21680;52.400;16.920;2023-12-20T00:37:21;3.80;;;3.20;;
35576;SDS011;21680;52.400;16.920;2023-12-20T00:39:47;6.00;;;3.50;;
35576;SDS011;21680;52.400;16.920;2023-12-20T00:42:12;3.30;;;2.80;;
35576;SDS011;21680;52.400;16.920;2023-12-20T00:44:38;6.60;;;3.30;;
35576;SDS011;21680;52.400;16.920;2023-12-20T00:47:03;5.10;;;2.60;;
35576;SDS011;21680;52.400;16.920;2023-12-20T00:49:29;4.50;;;3.20;;
35576;SDS011;21680;52.400;16.920;2023-12-20T00:51:54;3.90;;;2.90;;
35576;SDS011;21680;52.400;16.920;2023-12-20T00:54:21;2.80;;;2.30;;
35576;SDS011;21680;52.400;16.920;2023-12-20T00:56:46;3.50;;;2.90;;
35576;SDS011;21680;52.400;16.920;2023-12-20T00:59:11;4.20;;;2.70;;
35576;SDS011;21680;52.400;16.920;2023-12-20T01:01:37;4.20;;;2.60;;
35576;SDS011;21680;52.400;16.920;2023-12-20T01:04:03;5.70;;;2.90;;
35576;SDS011;21680;52.400;16.920;2023-12-20T01:06:28;3.70;;;2.70;;
35576;SDS011;21680;52.400;16.920;2023-12-20T01:08:54;4.50;;;2.70;;
35576;SDS011;21680;52.400;16.920;2023-12-20T01:11:19;2.60;;;2.40;;
35576;SDS011;21680;52.400;16.920;2023-12-20T01:13:44;4.80;;;2.60;;
35576;SDS011;21680;52.400;16.920;2023-12-20T01:16:12;2.80;;;2.30;;
35576;SDS011;21680;52.400;16.920;2023-12-20T01:18:38;2.60;;;2.20;;
35576;SDS011;21680;52.400;16.920;2023-12-20T01:21:04;4.60;;;2.50;;
35576;SDS011;21680;52.400;16.920;2023-12-20T01:23:29;2.90;;;2.10;;
35576;SDS011;21680;52.400;16.920;2023-12-20T01:25:55;3.80;;;2.80;;
35576;SDS011;21680;52.400;16.920;2023-12-20T01:28:22;3.60;;;2.40;;
35576;SDS011;21680;52.400;16.920;2023-12-20T01:30:47;3.80;;;2.40;;
35576;SDS011;21680;52.400;16.920;2023-12-20T01:33:12;2.70;;;1.80;;
35576;SDS011;21680;52.400;16.920;2023-12-20T01:35:38;2.70;;;2.20;;
35576;SDS011;21680;52.400;16.920;2023-12-20T01:38:03;3.30;;;2.50;;
35576;SDS011;21680;52.400;16.920;2023-12-20T01:40:28;2.60;;;2.30;;
35576;SDS011;21680;52.400;16.920;2023-12-20T01:42:57;2.90;;;2.40;;
35576;SDS011;21680;52.400;16.920;2023-12-20T01:45:24;3.00;;;2.10;;
35576;SDS011;21680;52.400;16.920;2023-12-20T01:47:49;5.10;;;2.40;;
35576;SDS011;21680;52.400;16.920;2023-12-20T01:50:15;3.00;;;2.00;;
35576;SDS011;21680;52.400;16.920;2023-12-20T01:52:42;4.90;;;2.80;;
35576;SDS011;21680;52.400;16.920;2023-12-20T01:55:10;4.60;;;2.50;;
35576;SDS011;21680;52.400;16.920;2023-12-20T01:57:41;2.70;;;2.40;;
35576;SDS011;21680;52.400;16.920;2023-12-20T02:00:08;2.40;;;2.20;;
35576;SDS011;21680;52.400;16.920;2023-12-20T02:02:36;2.90;;;2.30;;
35576;SDS011;21680;52.400;16.920;2023-12-20T02:05:05;3.50;;;2.10;;
35576;SDS011;21680;52.400;16.920;2023-12-20T02:07:32;3.40;;;2.40;;
35576;SDS011;21680;52.400;16.920;2023-12-20T02:10:00;2.60;;;2.30;;
35576;SDS011;21680;52.400;16.920;2023-12-20T02:12:25;3.50;;;2.60;;
35576;SDS011;21680;52.400;16.920;2023-12-20T02:14:51;3.20;;;2.50;;
35576;SDS011;21680;52.400;16.920;2023-12-20T02:17:16;3.50;;;2.70;;
35576;SDS011;21680;52.400;16.920;2023-12-20T02:19:41;3.90;;;2.60;;
35576;SDS011;21680;52.400;16.920;2023-12-20T02:22:08;2.70;;;2.50;;
35576;SDS011;21680;52.400;16.920;2023-12-20T02:24:34;2.90;;;2.70;;
35576;SDS011;21680;52.400;16.920;2023-12-20T02:27:00;2.50;;;2.30;;
35576;SDS011;21680;52.400;16.920;2023-12-20T02:29:25;2.80;;;2.20;;
35576;SDS011;21680;52.400;16.920;2023-12-20T02:31:51;2.90;;;2.60;;
35576;SDS011;21680;52.400;16.920;2023-12-20T02:34:18;3.50;;;2.60;;
35576;SDS011;21680;52.400;16.920;2023-12-20T02:36:43;3.40;;;2.70;;
35576;SDS011;21680;52.400;16.920;2023-12-20T02:39:08;2.10;;;1.90;;
35576;SDS011;21680;52.400;16.920;2023-12-20T02:41:34;2.90;;;2.00;;
35576;SDS011;21680;52.400;16.920;2023-12-20T02:43:59;2.60;;;2.20;;
35576;SDS011;21680;52.400;16.920;2023-12-20T02:46:24;4.70;;;2.70;;
35576;SDS011;21680;52.400;16.920;2023-12-20T02:48:50;3.10;;;2.10;;
35576;SDS011;21680;52.400;16.920;2023-12-20T02:51:15;3.40;;;2.50;;
35576;SDS011;21680;52.400;16.920;2023-12-20T02:53:40;3.10;;;2.60;;
35576;SDS011;21680;52.400;16.920;2023-12-20T02:56:05;2.40;;;2.20;;
35576;SDS011;21680;52.400;16.920;2023-12-20T02:58:32;2.30;;;2.10;;
35576;SDS011;21680;52.400;16.920;2023-12-20T03:00:57;2.30;;;2.10;;
35576;SDS011;21680;52.400;16.920;2023-12-20T03:03:23;2.30;;;1.80;;
35576;SDS011;21680;52.400;16.920;2023-12-20T03:05:48;3.30;;;2.60;;
35576;SDS011;21680;52.400;16.920;2023-12-20T03:08:13;3.00;;;2.70;;
35576;SDS011;21680;52.400;16.920;2023-12-20T03:10:38;3.50;;;2.60;;
35576;SDS011;21680;52.400;16.920;2023-12-20T03:13:04;3.50;;;2.70;;
35576;SDS011;21680;52.400;16.920;2023-12-20T03:15:29;4.30;;;2.90;;
35576;SDS011;21680;52.400;16.920;2023-12-20T03:17:55;3.20;;;2.70;;
35576;SDS011;21680;52.400;16.920;2023-12-20T03:20:20;3.20;;;2.70;;
35576;SDS011;21680;52.400;16.920;2023-12-20T03:22:45;3.70;;;3.00;;
35576;SDS011;21680;52.400;16.920;2023-12-20T03:25:10;4.20;;;3.70;;
35576;SDS011;21680;52.400;16.920;2023-12-20T03:27:39;4.80;;;3.20;;
35576;SDS011;21680;52.400;16.920;2023-12-20T03:30:05;4.30;;;3.20;;
35576;SDS011;21680;52.400;16.920;2023-12-20T03:32:32;4.50;;;3.60;;
35576;SDS011;21680;52.400;16.920;2023-12-20T03:34:57;3.60;;;3.20;;
35576;SDS011;21680;52.400;16.920;2023-12-20T03:37:22;3.90;;;2.80;;
35576;SDS011;21680;52.400;16.920;2023-12-20T03:39:48;3.70;;;3.00;;
35576;SDS011;21680;52.400;16.920;2023-12-20T03:42:13;3.10;;;2.70;;
35576;SDS011;21680;52.400;16.920;2023-12-20T03:44:38;3.60;;;2.90;;
35576;SDS011;21680;52.400;16.920;2023-12-20T03:47:05;3.20;;;2.80;;
35576;SDS011;21680;52.400;16.920;2023-12-20T03:49:30;3.40;;;2.90;;
35576;SDS011;21680;52.400;16.920;2023-12-20T03:51:55;3.90;;;2.70;;
35576;SDS011;21680;52.400;16.920;2023-12-20T03:54:21;3.60;;;3.00;;
35576;SDS011;21680;52.400;16.920;2023-12-20T03:56:46;3.80;;;3.10;;
35576;SDS011;21680;52.400;16.920;2023-12-20T03:59:11;3.10;;;2.80;;
35576;SDS011;21680;52.400;16.920;2023-12-20T04:01:36;3.60;;;2.90;;
35576;SDS011;21680;52.400;16.920;2023-12-20T04:04:01;3.70;;;2.80;;
35576;SDS011;21680;52.400;16.920;2023-12-20T04:06:28;3.20;;;2.90;;
35576;SDS011;21680;52.400;16.920;2023-12-20T04:08:54;3.00;;;2.70;;
35576;SDS011;21680;52.400;16.920;2023-12-20T04:11:19;3.10;;;2.80;;
35576;SDS011;21680;52.400;16.920;2023-12-20T04:13:44;2.60;;;2.40;;
35576;SDS011;21680;52.400;16.920;2023-12-20T04:16:09;5.10;;;3.10;;
35576;SDS011;21680;52.400;16.920;2023-12-20T04:18:35;3.60;;;2.80;;
35576;SDS011;21680;52.400;16.920;2023-12-20T04:21:00;3.40;;;2.40;;
35576;SDS011;21680;52.400;16.920;2023-12-20T04:23:25;3.80;;;2.90;;
35576;SDS011;21680;52.400;16.920;2023-12-20T04:25:50;4.70;;;2.50;;
35576;SDS011;21680;52.400;16.920;2023-12-20T04:28:16;2.70;;;2.50;;
35576;SDS011;21680;52.400;16.920;2023-12-20T04:30:42;3.10;;;2.80;;
35576;SDS011;21680;52.400;16.920;2023-12-20T04:33:07;3.70;;;2.80;;
35576;SDS011;21680;52.400;16.920;2023-12-20T04:35:32;3.90;;;3.00;;
35576;SDS011;21680;52.400;16.920;2023-12-20T04:37:58;4.00;;;2.60;;
35576;SDS011;21680;52.400;16.920;2023-12-20T04:40:23;2.50;;;2.30;;
35576;SDS011;21680;52.400;16.920;2023-12-20T04:42:51;2.70;;;2.40;;
35576;SDS011;21680;52.400;16.920;2023-12-20T04:45:17;3.70;;;2.70;;
35576;SDS011;21680;52.400;16.920;2023-12-20T04:47:45;2.70;;;2.50;;
35576;SDS011;21680;52.400;16.920;2023-12-20T04:50:12;3.60;;;3.30;;
35576;SDS011;21680;52.400;16.920;2023-12-20T04:52:38;3.30;;;3.00;;
35576;SDS011;21680;52.400;16.920;2023-12-20T04:55:09;3.60;;;3.30;;
35576;SDS011;21680;52.400;16.920;2023-12-20T04:57:34;4.90;;;3.60;;
35576;SDS011;21680;52.400;16.920;2023-12-20T05:00:03;3.40;;;2.90;;
35576;SDS011;21680;52.400;16.920;2023-12-20T05:02:29;3.50;;;2.90;;
35576;SDS011;21680;52.400;16.920;2023-12-20T05:04:55;7.00;;;3.40;;
35576;SDS011;21680;52.400;16.920;2023-12-20T05:07:20;3.50;;;2.90;;
35576;SDS011;21680;52.400;16.920;2023-12-20T05:09:52;3.00;;;2.70;;
35576;SDS011;21680;52.400;16.920;2023-12-20T05:12:17;4.60;;;3.60;;
35576;SDS011;21680;52.400;16.920;2023-12-20T05:14:42;3.90;;;3.10;;
35576;SDS011;21680;52.400;16.920;2023-12-20T05:17:07;4.20;;;3.60;;
35576;SDS011;21680;52.400;16.920;2023-12-20T05:19:33;3.90;;;3.30;;
35576;SDS011;21680;52.400;16.920;2023-12-20T05:22:00;6.00;;;4.00;;
35576;SDS011;21680;52.400;16.920;2023-12-20T05:24:27;4.40;;;3.20;;
35576;SDS011;21680;52.400;16.920;2023-12-20T05:26:53;3.30;;;3.00;;
35576;SDS011;21680;52.400;16.920;2023-12-20T05:29:18;4.10;;;3.40;;
35576;SDS011;21680;52.400;16.920;2023-12-20T05:31:47;3.60;;;2.80;;
35576;SDS011;21680;52.400;16.920;2023-12-20T05:34:12;3.90;;;3.10;;
35576;SDS011;21680;52.400;16.920;2023-12-20T05:36:37;3.90;;;2.90;;
35576;SDS011;21680;52.400;16.920;2023-12-20T05:39:03;3.30;;;2.50;;
35576;SDS011;21680;52.400;16.920;2023-12-20T05:41:32;3.20;;;2.80;;
35576;SDS011;21680;52.400;16.920;2023-12-20T05:43:57;4.40;;;3.20;;
35576;SDS011;21680;52.400;16.920;2023-12-20T05:46:23;4.70;;;3.60;;
35576;SDS011;21680;52.400;16.920;2023-12-20T05:48:49;4.60;;;3.30;;
35576;SDS011;21680;52.400;16.920;2023-12-20T05:51:14;4.80;;;3.20;;
35576;SDS011;21680;52.400;16.920;2023-12-20T05:53:40;3.40;;;3.10;;
35576;SDS011;21680;52.400;16.920;2023-12-20T05:56:05;3.50;;;3.10;;
35576;SDS011;21680;52.400;16.920;2023-12-20T05:58:32;4.30;;;3.10;;
35576;SDS011;21680;52.400;16.920;2023-12-20T06:00:57;4.00;;;3.30;;
35576;SDS011;21680;52.400;16.920;2023-12-20T06:03:23;3.70;;;3.30;;
35576;SDS011;21680;52.400;16.920;2023-12-20T06:05:48;4.00;;;3.50;;
35576;SDS011;21680;52.400;16.920;2023-12-20T06:08:13;4.20;;;3.40;;
35576;SDS011;21680;52.400;16.920;2023-12-20T06:10:39;6.80;;;4.30;;
35576;SDS011;21680;52.400;16.920;2023-12-20T06:13:05;3.90;;;3.30;;
35576;SDS011;21680;52.400;16.920;2023-12-20T06:15:31;4.00;;;3.60;;
35576;SDS011;21680;52.400;16.920;2023-12-20T06:17:57;5.80;;;4.60;;
35576;SDS011;21680;52.400;16.920;2023-12-20T06:20:22;4.60;;;3.50;;
35576;SDS011;21680;52.400;16.920;2023-12-20T06:22:48;4.30;;;3.70;;
35576;SDS011;21680;52.400;16.920;2023-12-20T06:25:13;4.10;;;3.40;;
35576;SDS011;21680;52.400;16.920;2023-12-20T06:27:39;3.90;;;3.40;;
35576;SDS011;21680;52.400;16.920;2023-12-20T06:30:06;3.00;;;2.70;;
35576;SDS011;21680;52.400;16.920;2023-12-20T06:32:34;5.70;;;3.00;;
35576;SDS011;21680;52.400;16.920;2023-12-20T06:35:00;5.30;;;3.20;;
35576;SDS011;21680;52.400;16.920;2023-12-20T06:37:26;3.60;;;3.20;;
35576;SDS011;21680;52.400;16.920;2023-12-20T06:39:51;4.60;;;2.70;;
35576;SDS011;21680;52.400;16.920;2023-12-20T06:42:16;2.90;;;2.60;;
35576;SDS011;21680;52.400;16.920;2023-12-20T06:44:42;5.30;;;2.90;;
35576;SDS011;21680;52.400;16.920;2023-12-20T06:47:08;4.00;;;2.80;;
35576;SDS011;21680;52.400;16.920;2023-12-20T06:49:33;5.90;;;2.90;;
35576;SDS011;21680;52.400;16.920;2023-12-20T06:51:59;3.90;;;2.80;;
35576;SDS011;21680;52.400;16.920;2023-12-20T06:54:24;2.60;;;2.40;;
35576;SDS011;21680;52.400;16.920;2023-12-20T06:56:49;4.90;;;2.60;;
35576;SDS011;21680;52.400;16.920;2023-12-20T06:59:14;2.50;;;2.20;;
35576;SDS011;21680;52.400;16.920;2023-12-20T07:01:40;3.00;;;2.50;;
35576;SDS011;21680;52.400;16.920;2023-12-20T07:04:06;2.70;;;2.50;;
35576;SDS011;21680;52.400;16.920;2023-12-20T07:06:31;3.40;;;2.80;;
35576;SDS011;21680;52.400;16.920;2023-12-20T07:08:56;6.40;;;4.00;;
35576;SDS011;21680;52.400;16.920;2023-12-20T07:11:21;7.20;;;3.60;;
35576;SDS011;21680;52.400;16.920;2023-12-20T07:13:47;3.40;;;3.00;;
35576;SDS011;21680;52.400;16.920;2023-12-20T07:16:12;4.10;;;2.80;;
35576;SDS011;21680;52.400;16.920;2023-12-20T07:18:38;6.00;;;3.40;;
35576;SDS011;21680;52.400;16.920;2023-12-20T07:21:06;6.40;;;2.90;;
35576;SDS011;21680;52.400;16.920;2023-12-20T07:23:33;3.60;;;2.40;;
35576;SDS011;21680;52.400;16.920;2023-12-20T07:26:01;3.80;;;2.40;;
35576;SDS011;21680;52.400;16.920;2023-12-20T07:30:57;4.00;;;1.70;;
35576;SDS011;21680;52.400;16.920;2023-12-20T07:33:23;2.70;;;2.40;;
35576;SDS011;21680;52.400;16.920;2023-12-20T07:35:48;4.90;;;2.50;;
35576;SDS011;21680;52.400;16.920;2023-12-20T07:38:13;5.10;;;3.00;;
35576;SDS011;21680;52.400;16.920;2023-12-20T07:40:42;4.80;;;2.60;;
35576;SDS011;21680;52.400;16.920;2023-12-20T07:43:09;3.00;;;2.50;;
35576;SDS011;21680;52.400;16.920;2023-12-20T07:45:34;5.40;;;2.80;;
35576;SDS011;21680;52.400;16.920;2023-12-20T07:48:06;3.00;;;2.20;;
35576;SDS011;21680;52.400;16.920;2023-12-20T07:53:01;4.00;;;2.60;;
35576;SDS011;21680;52.400;16.920;2023-12-20T07:55:29;4.40;;;2.90;;
35576;SDS011;21680;52.400;16.920;2023-12-20T07:57:57;5.40;;;2.90;;
35576;SDS011;21680;52.400;16.920;2023-12-20T08:00:22;9.70;;;4.00;;
35576;SDS011;21680;52.400;16.920;2023-12-20T08:02:47;6.00;;;3.90;;
35576;SDS011;21680;52.400;16.920;2023-12-20T08:05:13;5.50;;;3.40;;
35576;SDS011;21680;52.400;16.920;2023-12-20T08:07:38;6.70;;;3.30;;
35576;SDS011;21680;52.400;16.920;2023-12-20T08:10:04;4.90;;;3.00;;
35576;SDS011;21680;52.400;16.920;2023-12-20T08:12:32;7.40;;;3.00;;
35576;SDS011;21680;52.400;16.920;2023-12-20T08:15:02;5.40;;;3.60;;
35576;SDS011;21680;52.400;16.920;2023-12-20T08:17:35;6.50;;;3.10;;
35576;SDS011;21680;52.400;16.920;2023-12-20T08:20:00;8.10;;;4.20;;
35576;SDS011;21680;52.400;16.920;2023-12-20T08:22:25;6.20;;;3.60;;
35576;SDS011;21680;52.400;16.920;2023-12-20T08:24:51;7.60;;;3.80;;
35576;SDS011;21680;52.400;16.920;2023-12-20T08:27:16;6.30;;;3.50;;
35576;SDS011;21680;52.400;16.920;2023-12-20T08:29:43;7.50;;;3.80;;
35576;SDS011;21680;52.400;16.920;2023-12-20T08:32:09;7.80;;;3.90;;
35576;SDS011;21680;52.400;16.920;2023-12-20T08:34:35;9.20;;;4.30;;
35576;SDS011;21680;52.400;16.920;2023-12-20T08:37:00;10.50;;;4.40;;
35576;SDS011;21680;52.400;16.920;2023-12-20T08:39:26;8.30;;;3.80;;
35576;SDS011;21680;52.400;16.920;2023-12-20T08:41:51;7.30;;;3.40;;
35576;SDS011;21680;52.400;16.920;2023-12-20T08:44:16;7.40;;;3.50;;
35576;SDS011;21680;52.400;16.920;2023-12-20T08:46:42;6.20;;;4.00;;
35576;SDS011;21680;52.400;16.920;2023-12-20T08:49:08;8.70;;;4.30;;
35576;SDS011;21680;52.400;16.920;2023-12-20T08:51:35;9.40;;;5.80;;
35576;SDS011;21680;52.400;16.920;2023-12-20T08:54:00;9.40;;;5.40;;
35576;SDS011;21680;52.400;16.920;2023-12-20T08:56:25;11.10;;;5.30;;
35576;SDS011;21680;52.400;16.920;2023-12-20T08:58:50;11.70;;;4.60;;
35576;SDS011;21680;52.400;16.920;2023-12-20T09:01:16;10.00;;;5.00;;
35576;SDS011;21680;52.400;16.920;2023-12-20T09:03:41;11.60;;;4.50;;
35576;SDS011;21680;52.400;16.920;2023-12-20T09:06:07;8.20;;;4.10;;
35576;SDS011;21680;52.400;16.920;2023-12-20T09:08:32;11.30;;;3.70;;
35576;SDS011;21680;52.400;16.920;2023-12-20T09:10:58;6.80;;;4.00;;
35576;SDS011;21680;52.400;16.920;2023-12-20T09:13:23;4.80;;;3.10;;
35576;SDS011;21680;52.400;16.920;2023-12-20T09:15:55;6.30;;;3.40;;
35576;SDS011;21680;52.400;16.920;2023-12-20T09:18:21;6.90;;;3.90;;
35576;SDS011;21680;52.400;16.920;2023-12-20T09:20:46;7.40;;;4.10;;
35576;SDS011;21680;52.400;16.920;2023-12-20T09:23:11;9.60;;;4.00;;
35576;SDS011;21680;52.400;16.920;2023-12-20T09:25:37;7.20;;;3.20;;
35576;SDS011;21680;52.400;16.920;2023-12-20T09:28:02;4.60;;;3.40;;
35576;SDS011;21680;52.400;16.920;2023-12-20T09:30:28;6.80;;;3.60;;
35576;SDS011;21680;52.400;16.920;2023-12-20T09:32:54;9.70;;;3.40;;
35576;SDS011;21680;52.400;16.920;2023-12-20T09:35:21;11.10;;;3.10;;
35576;SDS011;21680;52.400;16.920;2023-12-20T09:37:47;7.00;;;3.30;;
35576;SDS011;21680;52.400;16.920;2023-12-20T09:40:12;5.20;;;1.90;;
35576;SDS011;21680;52.400;16.920;2023-12-20T09:42:47;5.70;;;2.30;;
35576;SDS011;21680;52.400;16.920;2023-12-20T09:45:20;7.80;;;2.30;;
35576;SDS011;21680;52.400;16.920;2023-12-20T09:47:50;3.90;;;2.30;;
35576;SDS011;21680;52.400;16.920;2023-12-20T09:50:18;6.50;;;2.40;;
35576;SDS011;21680;52.400;16.920;2023-12-20T09:52:45;7.40;;;2.90;;
35576;SDS011;21680;52.400;16.920;2023-12-20T09:55:13;5.50;;;2.50;;
35576;SDS011;21680;52.400;16.920;2023-12-20T09:57:40;12.80;;;3.30;;
35576;SDS011;21680;52.400;16.920;2023-12-20T10:00:05;4.80;;;2.60;;
35576;SDS011;21680;52.400;16.920;2023-12-20T10:02:31;9.60;;;2.70;;
35576;SDS011;21680;52.400;16.920;2023-12-20T10:04:59;8.40;;;2.90;;
35576;SDS011;21680;52.400;16.920;2023-12-20T10:07:25;9.40;;;2.80;;
35576;SDS011;21680;52.400;16.920;2023-12-20T10:09:51;5.70;;;2.40;;
35576;SDS011;21680;52.400;16.920;2023-12-20T10:12:19;9.90;;;3.10;;
35576;SDS011;21680;52.400;16.920;2023-12-20T10:14:45;5.90;;;2.50;;
35576;SDS011;21680;52.400;16.920;2023-12-20T10:17:10;8.80;;;3.00;;
35576;SDS011;21680;52.400;16.920;2023-12-20T10:19:35;10.00;;;2.80;;
35576;SDS011;21680;52.400;16.920;2023-12-20T10:22:00;13.00;;;4.00;;
35576;SDS011;21680;52.400;16.920;2023-12-20T10:24:28;13.20;;;3.00;;
35576;SDS011;21680;52.400;16.920;2023-12-20T10:27:07;6.00;;;2.80;;
35576;SDS011;21680;52.400;16.920;2023-12-20T10:29:33;9.40;;;3.10;;
35576;SDS011;21680;52.400;16.920;2023-12-20T10:32:05;6.50;;;2.90;;
35576;SDS011;21680;52.400;16.920;2023-12-20T10:34:49;6.00;;;2.50;;
35576;SDS011;21680;52.400;16.920;2023-12-20T10:37:17;6.40;;;2.20;;
35576;SDS011;21680;52.400;16.920;2023-12-20T10:39:43;4.40;;;2.00;;
35576;SDS011;21680;52.400;16.920;2023-12-20T10:42:12;6.90;;;2.10;;
35576;SDS011;21680;52.400;16.920;2023-12-20T10:44:39;6.90;;;2.20;;
35576;SDS011;21680;52.400;16.920;2023-12-20T10:47:04;8.30;;;2.10;;
35576;SDS011;21680;52.400;16.920;2023-12-20T10:49:31;3.10;;;1.90;;
35576;SDS011;21680;52.400;16.920;2023-12-20T10:52:01;5.90;;;2.30;;
35576;SDS011;21680;52.400;16.920;2023-12-20T10:54:29;9.40;;;2.10;;
35576;SDS011;21680;52.400;16.920;2023-12-20T10:56:54;6.80;;;2.70;;
35576;SDS011;21680;52.400;16.920;2023-12-20T10:59:23;9.00;;;2.40;;
35576;SDS011;21680;52.400;16.920;2023-12-20T11:01:51;7.70;;;2.50;;
35576;SDS011;21680;52.400;16.920;2023-12-20T11:04:24;4.50;;;2.60;;
35576;SDS011;21680;52.400;16.920;2023-12-20T11:07:08;7.30;;;2.60;;
35576;SDS011;21680;52.400;16.920;2023-12-20T11:12:53;11.90;;;3.00;;
35576;SDS011;21680;52.400;16.920;2023-12-20T11:15:23;8.80;;;2.50;;
35576;SDS011;21680;52.400;16.920;2023-12-20T11:17:56;7.40;;;2.70;;
35576;SDS011;21680;52.400;16.920;2023-12-20T11:20:24;8.80;;;2.70;;
35576;SDS011;21680;52.400;16.920;2023-12-20T11:22:59;6.60;;;1.90;;
35576;SDS011;21680;52.400;16.920;2023-12-20T11:25:25;8.10;;;2.20;;
35576;SDS011;21680;52.400;16.920;2023-12-20T11:28:08;6.80;;;2.70;;
35576;SDS011;21680;52.400;16.920;2023-12-20T11:30:42;6.10;;;2.20;;
35576;SDS011;21680;52.400;16.920;2023-12-20T11:33:12;5.40;;;2.30;;
35576;SDS011;21680;52.400;16.920;2023-12-20T11:35:45;6.10;;;1.90;;
35576;SDS011;21680;52.400;16.920;2023-12-20T11:38:11;5.80;;;1.80;;
35576;SDS011;21680;52.400;16.920;2023-12-20T11:40:40;7.00;;;1.60;;
35576;SDS011;21680;52.400;16.920;2023-12-20T11:43:06;8.50;;;2.40;;
35576;SDS011;21680;52.400;16.920;2023-12-20T11:45:32;10.80;;;2.80;;
35576;SDS011;21680;52.400;16.920;2023-12-20T11:47:59;5.90;;;1.90;;
35576;SDS011;21680;52.400;16.920;2023-12-20T11:50:27;12.00;;;2.80;;
35576;SDS011;21680;52.400;16.920;2023-12-20T11:52:53;7.80;;;2.30;;
35576;SDS011;21680;52.400;16.920;2023-12-20T11:55:20;11.40;;;2.40;;
35576;SDS011;21680;52.400;16.920;2023-12-20T11:57:45;4.60;;;1.50;;
35576;SDS011;21680;52.400;16.920;2023-12-20T12:00:11;7.60;;;2.30;;
35576;SDS011;21680;52.400;16.920;2023-12-20T12:02:38;9.40;;;2.60;;
35576;SDS011;21680;52.400;16.920;2023-12-20T12:05:03;7.30;;;2.10;;
35576;SDS011;21680;52.400;16.920;2023-12-20T12:07:30;7.50;;;2.20;;
35576;SDS011;21680;52.400;16.920;2023-12-20T12:09:56;7.50;;;2.20;;
35576;SDS011;21680;52.400;16.920;2023-12-20T12:12:21;15.60;;;3.30;;
35576;SDS011;21680;52.400;16.920;2023-12-20T12:14:48;9.00;;;2.60;;
35576;SDS011;21680;52.400;16.920;2023-12-20T12:17:22;7.60;;;2.20;;
35576;SDS011;21680;52.400;16.920;2023-12-20T12:19:47;6.70;;;3.00;;
35576;SDS011;21680;52.400;16.920;2023-12-20T12:22:15;6.70;;;2.20;;
35576;SDS011;21680;52.400;16.920;2023-12-20T12:24:42;7.30;;;2.00;;
35576;SDS011;21680;52.400;16.920;2023-12-20T12:27:08;7.20;;;2.00;;
35576;SDS011;21680;52.400;16.920;2023-12-20T12:29:34;9.10;;;1.80;;
35576;SDS011;21680;52.400;16.920;2023-12-20T12:32:07;10.40;;;2.20;;
35576;SDS011;21680;52.400;16.920;2023-12-20T12:34:36;9.50;;;1.90;;
35576;SDS011;21680;52.400;16.920;2023-12-20T12:37:01;7.00;;;2.60;;
35576;SDS011;21680;52.400;16.920;2023-12-20T12:39:29;9.90;;;2.50;;
35576;SDS011;21680;52.400;16.920;2023-12-20T12:42:06;6.70;;;1.90;;
35576;SDS011;21680;52.400;16.920;2023-12-20T12:44:34;6.30;;;1.80;;
35576;SDS011;21680;52.400;16.920;2023-12-20T12:47:06;7.30;;;1.90;;
35576;SDS011;21680;52.400;16.920;2023-12-20T12:49:31;9.90;;;2.20;;
35576;SDS011;21680;52.400;16.920;2023-12-20T12:51:57;8.40;;;2.40;;
35576;SDS011;21680;52.400;16.920;2023-12-20T12:54:23;8.20;;;2.00;;
35576;SDS011;21680;52.400;16.920;2023-12-20T12:56:49;10.20;;;2.20;;
35576;SDS011;21680;52.400;16.920;2023-12-20T12:59:15;9.60;;;3.20;;
35576;SDS011;21680;52.400;16.920;2023-12-20T13:01:42;14.60;;;2.30;;
35576;SDS011;21680;52.400;16.920;2023-12-20T13:04:08;9.30;;;2.10;;
35576;SDS011;21680;52.400;16.920;2023-12-20T13:06:36;11.50;;;2.70;;
35576;SDS011;21680;52.400;16.920;2023-12-20T13:09:05;10.00;;;3.10;;
35576;SDS011;21680;52.400;16.920;2023-12-20T13:11:31;12.60;;;3.00;;
35576;SDS011;21680;52.400;16.920;2023-12-20T13:13:59;7.50;;;2.30;;
35576;SDS011;21680;52.400;16.920;2023-12-20T13:16:25;10.10;;;3.20;;
35576;SDS011;21680;52.400;16.920;2023-12-20T13:18:50;10.00;;;2.50;;
35576;SDS011;21680;52.400;16.920;2023-12-20T13:21:15;12.40;;;2.30;;
35576;SDS011;21680;52.400;16.920;2023-12-20T13:23:42;12.20;;;3.40;;
35576;SDS011;21680;52.400;16.920;2023-12-20T13:26:07;11.50;;;2.80;;
35576;SDS011;21680;52.400;16.920;2023-12-20T13:28:32;13.80;;;2.50;;
35576;SDS011;21680;52.400;16.920;2023-12-20T13:30:58;4.30;;;2.40;;
35576;SDS011;21680;52.400;16.920;2023-12-20T13:33:29;7.70;;;2.20;;
35576;SDS011;21680;52.400;16.920;2023-12-20T13:35:54;13.70;;;2.50;;
35576;SDS011;21680;52.400;16.920;2023-12-20T13:38:23;7.00;;;2.30;;
35576;SDS011;21680;52.400;16.920;2023-12-20T13:40:49;13.60;;;2.80;;
35576;SDS011;21680;52.400;16.920;2023-12-20T13:43:14;5.60;;;2.50;;
35576;SDS011;21680;52.400;16.920;2023-12-20T13:45:41;13.00;;;3.00;;
35576;SDS011;21680;52.400;16.920;2023-12-20T13:48:07;7.90;;;2.20;;
35576;SDS011;21680;52.400;16.920;2023-12-20T13:50:35;7.30;;;2.70;;
35576;SDS011;21680;52.400;16.920;2023-12-20T13:53:00;10.10;;;2.60;;
35576;SDS011;21680;52.400;16.920;2023-12-20T13:55:26;10.70;;;2.40;;
35576;SDS011;21680;52.400;16.920;2023-12-20T13:57:52;8.80;;;2.70;;
35576;SDS011;21680;52.400;16.920;2023-12-20T14:00:17;16.90;;;3.00;;
35576;SDS011;21680;52.400;16.920;2023-12-20T14:02:43;16.20;;;3.30;;
35576;SDS011;21680;52.400;16.920;2023-12-20T14:05:11;14.30;;;3.50;;
35576;SDS011;21680;52.400;16.920;2023-12-20T14:07:36;7.50;;;2.40;;
35576;SDS011;21680;52.400;16.920;2023-12-20T14:10:02;13.80;;;3.70;;
35576;SDS011;21680;52.400;16.920;2023-12-20T14:12:31;9.20;;;2.70;;
35576;SDS011;21680;52.400;16.920;2023-12-20T14:15:00;24.40;;;10.30;;
35576;SDS011;21680;52.400;16.920;2023-12-20T14:17:26;17.80;;;7.20;;
35576;SDS011;21680;52.400;16.920;2023-12-20T14:19:56;13.20;;;4.20;;
35576;SDS011;21680;52.400;16.920;2023-12-20T14:22:22;9.60;;;3.60;;
35576;SDS011;21680;52.400;16.920;2023-12-20T14:24:52;13.30;;;2.50;;
35576;SDS011;21680;52.400;16.920;2023-12-20T14:27:19;8.30;;;2.70;;
35576;SDS011;21680;52.400;16.920;2023-12-20T14:29:50;10.40;;;2.40;;
35576;SDS011;21680;52.400;16.920;2023-12-20T14:32:15;11.60;;;2.60;;
35576;SDS011;21680;52.400;16.920;2023-12-20T14:34:41;7.50;;;2.80;;
35576;SDS011;21680;52.400;16.920;2023-12-20T14:37:07;7.50;;;2.10;;